createdAt,value
2018-02-09T00:00:01.010Z,-1.60
2018-02-09T00:02:27.994Z,-1.60
2018-02-09T00:04:54.966Z,-1.60
2018-02-09T00:07:22.799Z,-1.60
2018-02-09T00:09:49.856Z,-1.70
2018-02-09T00:12:16.834Z,-1.70
2018-02-09T00:14:43.871Z,-1.70
2018-02-09T00:17:10.859Z,-1.80
2018-02-09T00:19:37.831Z,-1.80
2018-02-09T00:22:04.811Z,-1.90
2018-02-09T00:24:32.622Z,-1.90
2018-02-09T00:26:59.690Z,-1.90
2018-02-09T00:29:26.725Z,-1.90
2018-02-09T00:31:54.442Z,-2.00
2018-02-09T00:34:21.478Z,-2.00
2018-02-09T00:36:48.547Z,-2.00
2018-02-09T00:39:15.604Z,-2.00
2018-02-09T00:41:42.574Z,-2.00
2018-02-09T00:44:09.639Z,-2.00
2018-02-09T00:46:36.614Z,-2.00
2018-02-09T00:49:03.596Z,-2.00
2018-02-09T00:51:31.327Z,-2.10
2018-02-09T00:53:58.370Z,-2.10
2018-02-09T00:56:25.435Z,-2.10
2018-02-09T00:58:52.418Z,-2.10
2018-02-09T01:01:20.898Z,-2.10
2018-02-09T01:03:47.882Z,-2.10
2018-02-09T01:06:15.688Z,-2.10
2018-02-09T01:08:43.436Z,-2.00
2018-02-09T01:11:10.535Z,-2.00
2018-02-09T01:13:38.263Z,-2.00
2018-02-09T01:16:05.247Z,-2.00
2018-02-09T01:18:33.066Z,-1.90
2018-02-09T01:21:00.045Z,-1.90
2018-02-09T01:23:27.094Z,-1.90
2018-02-09T01:25:54.075Z,-1.90
2018-02-09T01:28:21.060Z,-1.80
2018-02-09T01:30:48.798Z,-1.80
2018-02-09T01:33:15.775Z,-1.80
2018-02-09T01:35:42.751Z,-1.80
2018-02-09T01:38:10.502Z,-1.70
2018-02-09T01:40:37.526Z,-1.70
2018-02-09T01:43:04.515Z,-1.70
2018-02-09T01:45:31.487Z,-1.70
2018-02-09T01:47:58.510Z,-1.70
2018-02-09T01:50:25.572Z,-1.60
2018-02-09T01:52:52.550Z,-1.60
2018-02-09T01:55:19.592Z,-1.60
2018-02-09T01:57:46.569Z,-1.60
2018-02-09T02:00:13.607Z,-1.60
2018-02-09T02:02:40.658Z,-1.50
2018-02-09T02:05:07.729Z,-1.50
2018-02-09T02:07:34.702Z,-1.50
2018-02-09T02:10:01.683Z,-1.40
2018-02-09T02:12:28.662Z,-1.40
2018-02-09T02:14:56.479Z,-1.40
2018-02-09T02:17:23.547Z,-1.40
2018-02-09T02:19:50.523Z,-1.30
2018-02-09T02:22:17.507Z,-1.30
2018-02-09T02:24:45.263Z,-1.30
2018-02-09T02:27:13.844Z,-1.30
2018-02-09T02:29:40.803Z,-1.30
2018-02-09T02:32:07.783Z,-1.30
2018-02-09T02:34:34.804Z,-1.20
2018-02-09T02:37:01.871Z,-1.20
2018-02-09T02:39:28.838Z,-1.20
2018-02-09T02:41:55.818Z,-1.20
2018-02-09T02:44:22.846Z,-1.20
2018-02-09T02:46:49.811Z,-1.10
2018-02-09T02:49:16.803Z,-1.10
2018-02-09T02:51:43.779Z,-1.10
2018-02-09T02:54:11.597Z,-1.10
2018-02-09T02:56:38.567Z,-1.10
2018-02-09T02:59:05.559Z,-1.10
2018-02-09T03:01:32.527Z,-1.10
2018-02-09T03:04:00.331Z,-1.00
2018-02-09T03:06:28.050Z,-1.00
2018-02-09T03:08:55.084Z,-1.00
2018-02-09T03:11:22.143Z,-1.00
2018-02-09T03:13:49.123Z,-1.00
2018-02-09T03:16:16.099Z,-1.00
2018-02-09T03:18:43.119Z,-1.00
2018-02-09T03:21:10.183Z,-1.00
2018-02-09T03:23:37.162Z,-1.00
2018-02-09T03:26:04.135Z,-1.00
2018-02-09T03:28:31.115Z,-0.90
2018-02-09T03:30:58.927Z,-0.90
2018-02-09T03:33:26.004Z,-0.90
2018-02-09T03:35:52.983Z,-0.90
2018-02-09T03:38:20.736Z,-0.90
2018-02-09T03:40:47.793Z,-0.90
2018-02-09T03:43:14.771Z,-0.80
2018-02-09T03:45:41.747Z,-0.80
2018-02-09T03:48:09.584Z,-0.80
2018-02-09T03:50:36.642Z,-0.80
2018-02-09T03:53:03.623Z,-0.80
2018-02-09T03:55:30.664Z,-0.80
2018-02-09T03:57:57.719Z,-0.80
2018-02-09T04:00:24.780Z,-0.80
2018-02-09T04:02:51.792Z,-0.70
2018-02-09T04:05:19.531Z,-0.70
2018-02-09T04:07:46.524Z,-0.70
2018-02-09T04:10:14.262Z,-0.70
2018-02-09T04:12:41.250Z,-0.70
2018-02-09T04:15:08.224Z,-0.70
2018-02-09T04:17:36.057Z,-0.70
2018-02-09T04:20:03.035Z,-0.70
2018-02-09T04:22:30.062Z,-0.70
2018-02-09T04:24:57.059Z,-0.60
2018-02-09T04:27:24.087Z,-0.60
2018-02-09T04:29:51.071Z,-0.60
2018-02-09T04:32:18.102Z,-0.60
2018-02-09T04:34:45.084Z,-0.60
2018-02-09T04:37:12.114Z,-0.60
2018-02-09T04:39:39.175Z,-0.60
2018-02-09T04:42:06.156Z,-0.60
2018-02-09T04:44:33.196Z,-0.60
2018-02-09T04:47:00.255Z,-0.60
2018-02-09T04:49:27.320Z,-0.60
2018-02-09T04:51:54.292Z,-0.60
2018-02-09T04:54:21.276Z,-0.60
2018-02-09T04:56:48.291Z,-0.60
2018-02-09T04:59:15.270Z,-0.50
2018-02-09T05:01:42.242Z,-0.50
2018-02-09T05:04:09.223Z,-0.50
2018-02-09T05:06:36.963Z,-0.50
2018-02-09T05:09:03.946Z,-0.50
2018-02-09T05:11:31.788Z,-0.50
2018-02-09T05:13:58.838Z,-0.50
2018-02-09T05:16:25.900Z,-0.50
2018-02-09T05:18:52.879Z,-0.50
2018-02-09T05:21:19.921Z,-0.50
2018-02-09T05:23:46.903Z,-0.50
2018-02-09T05:26:13.875Z,-0.50
2018-02-09T05:28:40.919Z,-0.50
2018-02-09T05:31:07.862Z,-0.50
2018-02-09T05:33:34.846Z,-0.50
2018-02-09T05:36:01.867Z,-0.50
2018-02-09T05:38:28.846Z,-0.50
2018-02-09T05:40:55.875Z,-0.50
2018-02-09T05:43:22.803Z,-0.50
2018-02-09T05:45:50.618Z,-0.50
2018-02-09T05:48:17.602Z,-0.50
2018-02-09T05:50:44.638Z,-0.50
2018-02-09T05:53:11.702Z,-0.50
2018-02-09T05:55:38.678Z,-0.50
2018-02-09T05:58:05.720Z,-0.50
2018-02-09T06:00:32.695Z,-0.50
2018-02-09T06:02:59.671Z,-0.50
2018-02-09T06:05:26.696Z,-0.50
2018-02-09T06:07:53.666Z,-0.50
2018-02-09T06:10:20.718Z,-0.50
2018-02-09T06:12:47.771Z,-0.50
2018-02-09T06:15:14.754Z,-0.40
2018-02-09T06:17:41.803Z,-0.50
2018-02-09T06:20:08.855Z,-0.40
2018-02-09T06:22:35.903Z,-0.40
2018-02-09T06:25:02.975Z,-0.40
2018-02-09T06:27:29.951Z,-0.50
2018-02-09T06:29:56.982Z,-0.50
2018-02-09T06:32:24.047Z,-0.50
2018-02-09T06:34:51.111Z,-0.50
2018-02-09T06:37:18.179Z,-0.50
2018-02-09T06:39:45.232Z,-0.50
2018-02-09T06:42:12.207Z,-0.50
2018-02-09T06:44:39.252Z,-0.50
2018-02-09T06:47:06.307Z,-0.50
2018-02-09T06:49:33.369Z,-0.40
2018-02-09T06:52:00.431Z,-0.40
2018-02-09T06:54:27.415Z,-0.40
2018-02-09T06:56:54.451Z,-0.40
2018-02-09T06:59:21.434Z,-0.40
2018-02-09T07:01:48.440Z,-0.40
2018-02-09T07:04:15.526Z,-0.40
2018-02-09T07:06:42.595Z,-0.40
2018-02-09T07:09:09.579Z,-0.40
2018-02-09T07:11:36.551Z,-0.30
2018-02-09T07:14:04.300Z,-0.30
2018-02-09T07:16:31.363Z,-0.30
2018-02-09T07:18:58.403Z,-0.30
2018-02-09T07:21:25.380Z,-0.20
2018-02-09T07:23:52.416Z,-0.20
2018-02-09T07:26:19.399Z,-0.20
2018-02-09T07:28:46.378Z,-0.20
2018-02-09T07:31:13.346Z,-0.10
2018-02-09T07:33:41.104Z,-0.10
2018-02-09T07:36:08.851Z,-0.10
2018-02-09T07:38:35.827Z,-0.10
2018-02-09T07:41:02.803Z,-0.10
2018-02-09T07:43:30.645Z,-0.10
2018-02-09T07:45:57.615Z,-0.10
2018-02-09T07:48:24.586Z,0.00
2018-02-09T07:50:51.618Z,0.00
2018-02-09T07:53:18.591Z,0.00
2018-02-09T08:09:18.867Z,0.10
2018-02-09T08:11:45.871Z,0.10
2018-02-09T08:14:12.883Z,0.10
2018-02-09T08:16:39.860Z,0.20
2018-02-09T08:19:06.894Z,0.20
2018-02-09T08:21:33.867Z,0.10
2018-02-09T08:24:00.845Z,0.20
2018-02-09T08:26:28.590Z,0.20
2018-02-09T08:28:55.655Z,0.20
2018-02-09T08:31:22.714Z,0.20
2018-02-09T08:33:49.690Z,0.30
2018-02-09T08:36:16.740Z,0.30
2018-02-09T08:38:43.790Z,0.30
2018-02-09T08:41:10.901Z,0.30
2018-02-09T08:43:37.915Z,0.30
2018-02-09T08:46:04.894Z,0.30
2018-02-09T08:48:32.227Z,0.40
2018-02-09T08:50:59.307Z,0.40
2018-02-09T08:53:26.364Z,0.40
2018-02-09T08:55:53.342Z,0.40
2018-02-09T08:58:20.306Z,0.40
2018-02-09T09:00:47.343Z,0.40
2018-02-09T09:03:14.310Z,0.50
2018-02-09T09:05:41.458Z,0.50
2018-02-09T09:08:08.426Z,0.50
2018-02-09T09:10:35.402Z,0.50
2018-02-09T09:13:02.439Z,0.50
2018-02-09T09:15:29.425Z,0.50
2018-02-09T09:17:56.382Z,0.50
2018-02-09T09:20:23.407Z,0.60
2018-02-09T09:22:50.466Z,0.60
2018-02-09T09:25:17.526Z,0.60
2018-02-09T09:27:44.591Z,0.60
2018-02-09T09:30:11.575Z,0.60
2018-02-09T09:32:38.606Z,0.70
2018-02-09T09:35:05.583Z,0.70
2018-02-09T09:37:32.551Z,0.70
2018-02-09T09:39:59.586Z,0.70
2018-02-09T09:42:26.643Z,0.70
2018-02-09T09:44:53.618Z,0.70
2018-02-09T09:47:20.590Z,0.70
2018-02-09T09:49:47.564Z,0.80
2018-02-09T09:52:14.539Z,0.80
2018-02-09T09:54:42.355Z,0.80
2018-02-09T09:57:09.410Z,0.90
2018-02-09T09:59:36.393Z,0.90
2018-02-09T10:02:03.363Z,0.90
2018-02-09T10:04:30.390Z,1.00
2018-02-09T10:06:57.354Z,1.00
2018-02-09T10:09:24.407Z,1.00
2018-02-09T10:11:51.467Z,1.10
2018-02-09T10:14:18.522Z,1.10
2018-02-09T10:16:45.591Z,1.20
2018-02-09T10:19:12.658Z,1.20
2018-02-09T10:21:39.619Z,1.30
2018-02-09T10:24:06.624Z,1.30
2018-02-09T10:26:33.618Z,1.30
2018-02-09T10:29:00.688Z,1.30
2018-02-09T10:31:27.777Z,1.30
2018-02-09T10:33:54.717Z,1.40
2018-02-09T10:36:21.695Z,1.40
2018-02-09T10:38:48.667Z,1.40
2018-02-09T10:41:16.510Z,1.50
2018-02-09T10:43:43.554Z,1.40
2018-02-09T10:46:10.544Z,1.50
2018-02-09T10:48:37.511Z,1.50
2018-02-09T10:51:04.482Z,1.50
2018-02-09T10:53:32.222Z,1.60
2018-02-09T10:55:59.198Z,1.60
2018-02-09T10:58:26.228Z,1.60
2018-02-09T11:00:58.312Z,1.60
2018-02-09T11:03:25.290Z,1.70
2018-02-09T11:05:52.283Z,1.70
2018-02-09T11:08:19.279Z,1.70
2018-02-09T11:10:47.154Z,1.80
2018-02-09T11:13:15.942Z,1.80
2018-02-09T11:15:42.919Z,1.80
2018-02-09T11:18:09.887Z,1.90
2018-02-09T11:20:36.866Z,1.90
2018-02-09T11:23:03.899Z,1.90
2018-02-09T11:25:30.883Z,1.90
2018-02-09T11:27:57.859Z,1.90
2018-02-09T11:30:25.682Z,2.00
2018-02-09T11:32:52.682Z,1.90
2018-02-09T11:35:19.702Z,2.00
2018-02-09T11:37:46.771Z,2.00
2018-02-09T11:40:13.830Z,2.00
2018-02-09T11:42:40.807Z,2.10
2018-02-09T11:45:07.778Z,2.10
2018-02-09T11:47:34.759Z,2.10
2018-02-09T11:50:02.580Z,2.10
2018-02-09T11:52:29.634Z,2.10
2018-02-09T11:54:56.607Z,2.10
2018-02-09T11:57:23.587Z,2.10
2018-02-09T11:59:50.562Z,2.10
2018-02-09T12:02:17.535Z,2.10
2018-02-09T12:04:45.278Z,2.10
2018-02-09T12:07:12.250Z,2.10
2018-02-09T12:09:39.264Z,2.10
2018-02-09T12:12:06.236Z,2.20
2018-02-09T12:14:33.202Z,2.10
2018-02-09T12:17:00.178Z,2.20
2018-02-09T12:19:27.209Z,2.20
2018-02-09T12:21:54.191Z,2.20
2018-02-09T12:24:21.161Z,2.20
2018-02-09T12:26:48.188Z,2.30
2018-02-09T12:29:15.239Z,2.30
2018-02-09T12:31:42.331Z,2.30
2018-02-09T12:34:09.303Z,2.30
2018-02-09T12:36:37.048Z,2.40
2018-02-09T12:39:04.090Z,2.30
2018-02-09T12:41:31.062Z,2.40
2018-02-09T12:43:58.038Z,2.40
2018-02-09T12:46:25.015Z,2.40
2018-02-09T12:48:52.028Z,2.50
2018-02-09T12:51:19.012Z,2.50
2018-02-09T12:53:46.048Z,2.50
2018-02-09T12:56:13.031Z,2.50
2018-02-09T12:58:39.999Z,2.50
2018-02-09T13:01:06.971Z,2.50
2018-02-09T13:03:34.795Z,2.60
2018-02-09T13:06:01.839Z,2.50
2018-02-09T13:08:28.906Z,2.60
2018-02-09T13:10:55.914Z,2.60
2018-02-09T13:13:22.887Z,2.60
2018-02-09T13:15:50.631Z,2.60
2018-02-09T13:18:23.539Z,2.60
2018-02-09T13:20:50.523Z,2.60
2018-02-09T13:23:24.100Z,2.60
2018-02-09T13:25:51.087Z,2.60
2018-02-09T13:28:24.747Z,2.60
2018-02-09T13:30:51.727Z,2.60
2018-02-09T13:33:35.463Z,2.60
2018-02-09T13:36:02.443Z,2.60
2018-02-09T13:38:29.433Z,2.60
2018-02-09T13:40:56.419Z,2.60
2018-02-09T13:43:23.386Z,2.60
2018-02-09T13:45:50.362Z,2.60
2018-02-09T13:48:17.339Z,2.60
2018-02-09T13:50:45.476Z,2.70
2018-02-09T13:53:12.426Z,2.70
2018-02-09T13:55:39.406Z,2.70
2018-02-09T13:58:06.374Z,2.70
2018-02-09T14:00:33.358Z,2.70
2018-02-09T14:03:00.336Z,2.70
2018-02-09T14:05:27.302Z,2.70
2018-02-09T14:07:55.039Z,2.70
2018-02-09T14:10:22.083Z,2.70
2018-02-09T14:12:49.057Z,2.70
2018-02-09T14:15:16.099Z,2.70
2018-02-09T14:17:43.167Z,2.70
2018-02-09T14:20:10.138Z,2.70
2018-02-09T14:22:37.182Z,2.70
2018-02-09T14:25:04.240Z,2.70
2018-02-09T14:27:31.303Z,2.70
2018-02-09T14:29:58.359Z,2.70
2018-02-09T14:32:25.338Z,2.80
2018-02-09T14:34:52.383Z,2.80
2018-02-09T14:37:19.362Z,2.80
2018-02-09T14:39:46.403Z,2.80
2018-02-09T14:42:13.450Z,2.70
2018-02-09T14:44:40.427Z,2.70
2018-02-09T14:47:07.411Z,2.70
2018-02-09T14:49:34.434Z,2.70
2018-02-09T14:52:01.492Z,2.70
2018-02-09T14:54:28.523Z,2.70
2018-02-09T14:56:56.254Z,2.70
2018-02-09T14:59:23.229Z,2.70
2018-02-09T15:01:50.202Z,2.70
2018-02-09T15:04:17.938Z,2.70
2018-02-09T15:06:44.920Z,2.70
2018-02-09T15:09:11.891Z,2.70
2018-02-09T15:11:39.634Z,2.70
2018-02-09T15:14:06.606Z,2.70
2018-02-09T15:16:33.579Z,2.70
2018-02-09T15:19:01.310Z,2.70
2018-02-09T15:21:28.319Z,2.60
2018-02-09T15:23:56.061Z,2.70
2018-02-09T15:26:23.079Z,2.60
2018-02-09T15:28:50.787Z,2.60
2018-02-09T15:31:17.835Z,2.60
2018-02-09T15:33:44.890Z,2.60
2018-02-09T15:36:11.949Z,2.60
2018-02-09T15:38:38.919Z,2.60
2018-02-09T15:41:05.898Z,2.60
2018-02-09T15:43:32.930Z,2.60
2018-02-09T15:45:59.986Z,2.60
2018-02-09T15:48:27.046Z,2.60
2018-02-09T15:50:54.023Z,2.60
2018-02-09T15:53:20.995Z,2.50
2018-02-09T15:55:47.976Z,2.50
2018-02-09T15:58:15.715Z,2.50
2018-02-09T16:00:42.695Z,2.60
2018-02-09T16:03:09.723Z,2.60
2018-02-09T16:05:36.774Z,2.60
2018-02-09T16:08:03.751Z,2.60
2018-02-09T16:10:30.800Z,2.60
2018-02-09T16:12:57.826Z,2.60
2018-02-09T16:15:24.800Z,2.60
2018-02-09T16:17:51.775Z,2.60
2018-02-09T16:20:18.743Z,2.60
2018-02-09T16:22:45.725Z,2.60
2018-02-09T16:25:12.691Z,2.60
2018-02-09T16:27:39.671Z,2.50
2018-02-09T16:30:06.644Z,2.50
2018-02-09T16:32:33.628Z,2.50
2018-02-09T16:35:00.683Z,2.50
2018-02-09T16:37:27.663Z,2.50
2018-02-09T16:39:54.635Z,2.40
2018-02-09T16:42:21.619Z,2.40
2018-02-09T16:44:49.357Z,2.40
2018-02-09T16:47:16.339Z,2.40
2018-02-09T16:49:44.079Z,2.40
2018-02-09T16:52:11.128Z,2.40
2018-02-09T16:54:38.094Z,2.40
2018-02-09T16:57:05.075Z,2.30
2018-02-09T16:59:32.047Z,2.40
2018-02-09T17:01:59.858Z,2.30
2018-02-09T17:04:26.921Z,2.30
2018-02-09T17:06:54.640Z,2.30
2018-02-09T17:09:21.614Z,2.30
2018-02-09T17:11:48.599Z,2.30
2018-02-09T17:14:16.411Z,2.30
2018-02-09T17:16:43.393Z,2.20
2018-02-09T17:19:10.427Z,2.30
2018-02-09T17:21:37.415Z,2.30
2018-02-09T17:24:04.406Z,2.30
2018-02-09T17:26:32.228Z,2.30
2018-02-09T17:28:59.278Z,2.20
2018-02-09T17:31:26.256Z,2.30
2018-02-09T17:33:53.303Z,2.30
2018-02-09T17:36:20.359Z,2.30
2018-02-09T17:38:47.330Z,2.30
2018-02-09T17:41:14.353Z,2.30
2018-02-09T17:43:41.279Z,2.30
2018-02-09T17:46:09.027Z,2.40
2018-02-09T17:48:36.002Z,2.40
2018-02-09T17:51:02.979Z,2.40
2018-02-09T17:53:30.714Z,2.30
2018-02-09T17:55:57.762Z,2.30
2018-02-09T17:58:24.826Z,2.30
2018-02-09T18:00:51.882Z,2.30
2018-02-09T18:03:18.864Z,2.30
2018-02-09T18:05:45.830Z,2.30
2018-02-09T18:08:13.679Z,2.30
2018-02-09T18:10:40.647Z,2.30
2018-02-09T18:13:07.666Z,2.30
2018-02-09T18:15:34.631Z,2.30
2018-02-09T18:18:01.611Z,2.30
2018-02-09T18:20:28.677Z,2.30
2018-02-09T18:22:55.656Z,2.30
2018-02-09T18:25:22.690Z,2.30
2018-02-09T18:27:49.754Z,2.30
2018-02-09T18:30:16.724Z,2.30
2018-02-09T18:32:43.706Z,2.40
2018-02-09T18:35:10.684Z,2.30
2018-02-09T18:37:38.502Z,2.30
2018-02-09T18:40:08.678Z,2.30
2018-02-09T18:42:35.799Z,2.40
2018-02-09T18:45:02.867Z,2.40
2018-02-09T18:47:29.835Z,2.30
2018-02-09T18:49:56.819Z,2.30
2018-02-09T18:52:23.792Z,2.30
2018-02-09T18:54:51.545Z,2.40
2018-02-09T18:57:18.568Z,2.40
2018-02-09T18:59:45.542Z,2.40
2018-02-09T19:02:12.546Z,2.40
2018-02-09T19:04:40.293Z,2.40
2018-02-09T19:07:08.789Z,2.40
2018-02-09T19:09:35.752Z,2.40
2018-02-09T19:12:02.718Z,2.40
2018-02-09T19:14:29.690Z,2.40
2018-02-09T19:16:57.430Z,2.40
2018-02-09T19:19:24.410Z,2.40
2018-02-09T19:21:51.428Z,2.40
2018-02-09T19:24:18.390Z,2.40
2018-02-09T19:26:45.453Z,2.40
2018-02-09T19:29:12.532Z,2.40
2018-02-09T19:31:39.515Z,2.40
2018-02-09T19:34:07.251Z,2.40
2018-02-09T19:36:34.232Z,2.40
2018-02-09T19:39:01.199Z,2.40
2018-02-09T19:41:28.178Z,2.40
2018-02-09T19:43:55.151Z,2.30
2018-02-09T19:46:22.235Z,2.40
2018-02-09T19:48:49.202Z,2.30
2018-02-09T19:51:16.184Z,2.30
2018-02-09T19:53:43.935Z,2.40
2018-02-09T19:56:10.987Z,2.30
2018-02-09T19:58:38.047Z,2.30
2018-02-09T20:01:05.019Z,2.30
2018-02-09T20:03:31.999Z,2.40
2018-02-09T20:05:59.018Z,2.30
2018-02-09T20:08:25.990Z,2.30
2018-02-09T20:10:53.039Z,2.30
2018-02-09T20:13:20.094Z,2.30
2018-02-09T20:15:47.075Z,2.30
2018-02-09T20:18:14.043Z,2.40
2018-02-09T20:20:41.083Z,2.30
2018-02-09T20:23:08.135Z,2.40
2018-02-09T20:25:35.107Z,2.30
2018-02-09T20:28:02.119Z,2.40
2018-02-09T20:30:29.087Z,2.40
2018-02-09T20:32:56.064Z,2.40
2018-02-09T20:35:23.214Z,2.40
2018-02-09T20:37:50.963Z,2.40
2018-02-09T20:40:17.971Z,2.30
2018-02-09T20:42:44.951Z,2.30
2018-02-09T20:45:11.928Z,2.30
2018-02-09T20:47:38.942Z,2.30
2018-02-09T20:50:05.914Z,2.30
2018-02-09T20:52:32.891Z,2.30
2018-02-09T20:54:59.919Z,2.30
2018-02-09T20:57:26.958Z,2.30
2018-02-09T20:59:54.755Z,2.30
2018-02-09T21:02:21.815Z,2.20
2018-02-09T21:04:48.788Z,2.30
2018-02-09T21:07:15.831Z,2.30
2018-02-09T21:09:42.802Z,2.30
2018-02-09T21:12:09.850Z,2.30
2018-02-09T21:14:36.835Z,2.30
2018-02-09T21:17:03.807Z,2.30
2018-02-09T21:19:30.834Z,2.30
2018-02-09T21:21:57.803Z,2.30
2018-02-09T21:24:24.847Z,2.30
2018-02-09T21:26:51.814Z,2.30
2018-02-09T21:29:18.795Z,2.30
2018-02-09T21:31:45.762Z,2.20
2018-02-09T21:34:12.787Z,2.20
2018-02-09T21:36:39.845Z,2.20
2018-02-09T21:39:06.815Z,2.20
2018-02-09T21:41:33.788Z,2.20
2018-02-09T21:44:00.766Z,2.20
2018-02-09T21:46:28.514Z,2.20
2018-02-09T21:48:55.486Z,2.20
2018-02-09T21:51:22.454Z,2.10
2018-02-09T21:53:50.203Z,2.10
2018-02-09T21:56:17.244Z,2.10
2018-02-09T21:58:44.216Z,2.10
2018-02-09T22:01:11.202Z,2.10
2018-02-09T22:03:38.159Z,2.10
2018-02-09T22:06:05.176Z,2.00
2018-02-09T22:08:32.142Z,2.00
2018-02-09T22:10:59.196Z,2.00
2018-02-09T22:13:26.171Z,2.00
2018-02-09T22:15:53.147Z,2.00
2018-02-09T22:18:20.119Z,2.00
2018-02-09T22:20:47.948Z,1.90
2018-02-09T22:23:15.016Z,2.00
2018-02-09T22:25:41.997Z,2.00
2018-02-09T22:28:09.018Z,1.90
2018-02-09T22:30:36.121Z,1.90
2018-02-09T22:33:03.054Z,1.90
2018-02-09T22:35:30.098Z,1.90
2018-02-09T22:37:57.074Z,1.90
2018-02-09T22:40:24.122Z,1.90
2018-02-09T22:42:51.095Z,1.90
2018-02-09T22:45:18.075Z,1.90
2018-02-09T22:47:45.815Z,1.90
2018-02-09T22:50:12.881Z,1.90
2018-02-09T22:52:39.855Z,1.80
2018-02-09T22:55:06.846Z,1.90
2018-02-09T22:57:34.591Z,1.80
2018-02-09T23:00:01.560Z,1.80
2018-02-09T23:02:28.589Z,1.80
2018-02-09T23:04:55.550Z,1.80
2018-02-09T23:07:22.603Z,1.80
2018-02-09T23:09:49.573Z,1.80
2018-02-09T23:12:16.556Z,1.80
2018-02-09T23:14:43.588Z,1.80
2018-02-09T23:17:10.563Z,1.80
2018-02-09T23:19:38.298Z,1.70
2018-02-09T23:22:05.279Z,1.70
2018-02-09T23:24:32.335Z,1.70
2018-02-09T23:26:59.391Z,1.70
2018-02-09T23:29:26.358Z,1.60
2018-02-09T23:31:53.338Z,1.60
2018-02-09T23:34:20.417Z,1.60
2018-02-09T23:36:47.426Z,1.50
2018-02-09T23:39:14.411Z,1.50
2018-02-09T23:41:41.443Z,1.50
2018-02-09T23:44:08.507Z,1.50
2018-02-09T23:46:35.479Z,1.50
2018-02-09T23:49:02.523Z,1.50
2018-02-09T23:51:29.588Z,1.40
2018-02-09T23:53:56.775Z,1.40
2018-02-09T23:56:23.805Z,1.40
2018-02-09T23:58:50.867Z,1.40
